createdAt,value
2023-03-13T00:00:56.408Z,96.50
2023-03-13T00:03:23.097Z,96.00
2023-03-13T00:05:49.860Z,96.00
2023-03-13T00:08:16.457Z,96.00
2023-03-13T00:10:43.121Z,95.60
2023-03-13T00:13:10.161Z,95.20
2023-03-13T00:15:36.820Z,94.70
2023-03-13T00:18:03.555Z,94.30
2023-03-13T00:20:30.241Z,94.10
2023-03-13T00:22:56.945Z,94.00
2023-03-13T00:25:23.764Z,93.80
2023-03-13T00:27:50.369Z,93.80
2023-03-13T00:30:17.317Z,93.70
2023-03-13T00:32:46.222Z,93.80
2023-03-13T00:35:16.362Z,93.70
2023-03-13T00:37:43.293Z,93.60
2023-03-13T00:40:10.476Z,93.40
2023-03-13T00:42:37.176Z,93.80
2023-03-13T00:45:04.230Z,93.80
2023-03-13T00:47:30.927Z,93.80
2023-03-13T00:49:57.557Z,93.60
2023-03-13T00:52:24.947Z,93.40
2023-03-13T00:54:51.662Z,93.10
2023-03-13T00:57:18.285Z,93.00
2023-03-13T00:59:44.876Z,92.90
2023-03-13T01:02:11.670Z,93.00
2023-03-13T01:04:38.344Z,92.90
2023-03-13T01:07:05.036Z,92.90
2023-03-13T01:09:31.638Z,92.90
2023-03-13T01:11:58.416Z,92.80
2023-03-13T01:14:25.040Z,92.80
2023-03-13T01:16:51.714Z,92.80
2023-03-13T01:19:19.342Z,92.90
2023-03-13T01:21:46.569Z,92.80
2023-03-13T01:24:13.652Z,92.60
2023-03-13T01:26:40.441Z,92.00
2023-03-13T01:29:07.024Z,92.00
2023-03-13T01:31:35.696Z,91.90
2023-03-13T01:34:05.568Z,91.40
2023-03-13T01:36:33.273Z,91.50
2023-03-13T01:39:01.207Z,91.40
2023-03-13T01:41:30.267Z,91.10
2023-03-13T01:43:57.620Z,91.20
2023-03-13T01:46:27.674Z,91.60
2023-03-13T01:49:05.638Z,91.20
2023-03-13T01:51:37.362Z,91.40
2023-03-13T01:54:08.964Z,91.20
2023-03-13T01:56:45.389Z,91.20
2023-03-13T01:59:16.854Z,91.10
2023-03-13T02:01:45.860Z,91.00
2023-03-13T02:04:15.328Z,90.90
2023-03-13T02:06:45.188Z,90.40
2023-03-13T02:09:18.678Z,90.10
2023-03-13T02:11:51.581Z,90.10
2023-03-13T02:14:22.429Z,89.60
2023-03-13T02:16:52.006Z,89.60
2023-03-13T02:19:28.203Z,89.00
2023-03-13T02:22:22.256Z,89.10
2023-03-13T02:25:03.824Z,88.40
2023-03-13T02:27:30.512Z,88.30
2023-03-13T02:29:58.403Z,88.30
2023-03-13T02:32:27.121Z,88.20
2023-03-13T02:34:58.346Z,87.70
2023-03-13T02:37:28.575Z,87.60
2023-03-13T02:39:57.146Z,87.80
2023-03-13T02:42:24.629Z,87.70
2023-03-13T02:44:52.193Z,87.30
2023-03-13T02:47:23.502Z,87.00
2023-03-13T02:49:51.077Z,86.90
2023-03-13T02:52:41.972Z,86.70
2023-03-13T02:55:14.319Z,86.90
2023-03-13T02:57:40.949Z,86.90
2023-03-13T03:00:12.448Z,87.10
2023-03-13T03:02:39.462Z,87.10
2023-03-13T03:05:07.229Z,86.80
2023-03-13T03:07:33.894Z,86.70
2023-03-13T03:10:00.620Z,86.70
2023-03-13T03:12:27.339Z,86.60
2023-03-13T03:14:54.025Z,87.20
2023-03-13T03:17:20.754Z,87.40
2023-03-13T03:19:47.346Z,87.20
2023-03-13T03:22:13.989Z,86.90
2023-03-13T03:24:40.606Z,87.30
2023-03-13T03:27:07.280Z,87.30
2023-03-13T03:29:33.885Z,87.60
2023-03-13T03:32:00.621Z,87.40
2023-03-13T03:34:27.401Z,87.50
2023-03-13T03:36:54.048Z,87.50
2023-03-13T03:39:20.680Z,87.40
2023-03-13T03:41:47.446Z,87.60
2023-03-13T03:44:14.130Z,88.10
2023-03-13T03:46:40.973Z,88.80
2023-03-13T03:49:07.618Z,89.00
2023-03-13T03:51:34.338Z,89.20
2023-03-13T03:54:00.983Z,89.30
2023-03-13T03:56:27.556Z,89.70
2023-03-13T03:58:54.186Z,90.00
2023-03-13T04:01:20.805Z,89.80
2023-03-13T04:03:48.798Z,89.70
2023-03-13T04:06:15.592Z,90.00
2023-03-13T04:08:42.298Z,89.90
2023-03-13T04:11:09.138Z,89.70
2023-03-13T04:13:35.777Z,89.80
2023-03-13T04:16:10.493Z,90.30
2023-03-13T04:18:37.121Z,90.50
2023-03-13T04:21:05.527Z,91.00
2023-03-13T04:23:32.141Z,91.60
2023-03-13T04:25:58.788Z,92.40
2023-03-13T04:28:25.463Z,92.70
2023-03-13T04:33:34.218Z,94.60
2023-03-13T04:36:00.836Z,95.40
2023-03-13T04:38:27.522Z,95.60
2023-03-13T04:40:54.228Z,96.80
2023-03-13T04:43:20.914Z,97.20
2023-03-13T04:45:47.587Z,97.70
2023-03-13T04:48:14.604Z,98.20
2023-03-13T04:50:41.246Z,98.80
2023-03-13T04:53:07.900Z,99.20
2023-03-13T04:55:34.556Z,99.10
2023-03-13T04:58:01.161Z,99.80
2023-03-13T05:00:27.800Z,99.90
2023-03-13T05:02:54.469Z,99.90
2023-03-13T05:05:21.340Z,99.90
2023-03-13T05:07:48.092Z,99.90
2023-03-13T05:10:15.026Z,99.90
2023-03-13T05:12:41.684Z,99.90
2023-03-13T05:15:08.902Z,99.90
2023-03-13T05:17:35.661Z,99.90
2023-03-13T05:20:02.400Z,99.90
2023-03-13T05:22:29.045Z,99.90
2023-03-13T05:24:55.723Z,99.90
2023-03-13T05:27:22.409Z,99.90
2023-03-13T05:29:49.119Z,99.90
2023-03-13T05:32:15.743Z,99.90
2023-03-13T05:34:42.450Z,99.90
2023-03-13T05:37:09.186Z,99.90
2023-03-13T05:39:35.900Z,99.90
2023-03-13T05:42:02.689Z,99.90
2023-03-13T05:44:29.471Z,99.90
2023-03-13T05:46:56.158Z,99.90
2023-03-13T05:49:22.802Z,99.90
2023-03-13T05:51:49.429Z,99.90
2023-03-13T05:54:16.218Z,99.90
2023-03-13T05:56:42.907Z,99.90
2023-03-13T05:59:09.534Z,99.90
2023-03-13T06:01:36.781Z,99.90
2023-03-13T06:04:03.507Z,99.90
2023-03-13T06:06:30.285Z,99.90
2023-03-13T06:08:56.937Z,99.90
2023-03-13T06:11:23.773Z,99.90
2023-03-13T06:13:52.840Z,99.90
2023-03-13T06:16:20.836Z,99.90
2023-03-13T06:18:47.537Z,99.90
2023-03-13T06:21:14.406Z,99.90
2023-03-13T06:23:42.239Z,99.90
2023-03-13T06:26:08.898Z,99.90
2023-03-13T06:28:35.614Z,99.90
2023-03-13T06:31:06.684Z,99.90
2023-03-13T06:33:33.757Z,99.90
2023-03-13T06:36:01.809Z,99.90
2023-03-13T06:38:29.428Z,99.90
2023-03-13T06:40:56.512Z,99.90
2023-03-13T06:43:23.558Z,99.90
2023-03-13T06:45:52.740Z,99.90
2023-03-13T06:48:19.476Z,99.90
2023-03-13T06:50:46.170Z,99.90
2023-03-13T06:53:18.229Z,99.90
2023-03-13T06:55:45.637Z,99.90
2023-03-13T06:58:25.348Z,99.90
2023-03-13T07:00:55.793Z,99.90
2023-03-13T07:03:22.637Z,99.90
2023-03-13T07:05:49.244Z,99.90
2023-03-13T07:08:15.911Z,99.90
2023-03-13T07:10:43.323Z,99.90
2023-03-13T07:13:10.002Z,99.90
2023-03-13T07:15:36.651Z,99.90
2023-03-13T07:18:03.268Z,99.90
2023-03-13T07:20:30.028Z,99.90
2023-03-13T07:22:56.817Z,99.90
2023-03-13T07:25:23.481Z,99.90
2023-03-13T07:27:52.420Z,99.90
2023-03-13T07:30:20.080Z,99.90
2023-03-13T07:32:46.797Z,99.90
2023-03-13T07:35:13.471Z,99.90
2023-03-13T07:37:40.117Z,99.90
2023-03-13T07:40:09.212Z,99.90
2023-03-13T07:42:35.975Z,99.90
2023-03-13T07:45:02.730Z,99.90
2023-03-13T07:47:29.350Z,99.90
2023-03-13T07:49:55.973Z,99.90
2023-03-13T07:52:23.038Z,99.90
2023-03-13T07:54:49.658Z,99.90
2023-03-13T07:57:16.388Z,99.90
2023-03-13T07:59:42.997Z,99.90
2023-03-13T08:02:13.740Z,99.90
2023-03-13T08:04:40.770Z,99.90
2023-03-13T08:07:11.316Z,99.90
2023-03-13T08:09:38.427Z,99.90
2023-03-13T08:12:05.350Z,99.90
2023-03-13T08:14:32.080Z,99.90
2023-03-13T08:16:58.802Z,99.90
2023-03-13T08:19:25.729Z,99.90
2023-03-13T08:21:52.428Z,99.90
2023-03-13T08:24:19.151Z,99.90
2023-03-13T08:26:45.781Z,99.90
2023-03-13T08:29:14.624Z,99.90
2023-03-13T08:31:49.884Z,99.90
2023-03-13T08:34:17.953Z,99.90
2023-03-13T08:36:45.050Z,99.90
2023-03-13T08:39:14.603Z,99.90
2023-03-13T08:41:41.342Z,99.90
2023-03-13T08:44:11.217Z,99.90
2023-03-13T08:46:38.796Z,99.90
2023-03-13T08:49:07.737Z,99.90
2023-03-13T08:51:35.423Z,99.90
2023-03-13T08:54:03.415Z,99.90
2023-03-13T08:56:31.975Z,99.90
2023-03-13T08:59:01.078Z,99.30
2023-03-13T09:01:31.102Z,98.10
2023-03-13T09:03:58.156Z,97.30
2023-03-13T09:06:24.904Z,97.10
2023-03-13T09:08:51.742Z,96.50
2023-03-13T09:11:20.439Z,96.50
2023-03-13T09:13:49.489Z,96.20
2023-03-13T09:16:18.686Z,95.00
2023-03-13T09:18:46.177Z,95.30
2023-03-13T09:21:19.049Z,94.60
2023-03-13T09:23:45.789Z,91.90
2023-03-13T09:26:13.434Z,90.80
2023-03-13T09:28:42.040Z,90.90
2023-03-13T09:31:12.991Z,91.20
2023-03-13T09:33:40.328Z,89.90
2023-03-13T09:36:08.248Z,89.10
2023-03-13T09:38:35.647Z,87.80
2023-03-13T09:41:16.851Z,87.40
2023-03-13T09:43:43.499Z,85.90
2023-03-13T09:46:35.528Z,86.30
2023-03-13T09:49:43.432Z,85.80
2023-03-13T09:52:29.020Z,86.60
2023-03-13T09:55:05.858Z,86.20
2023-03-13T09:57:54.252Z,86.70
2023-03-13T10:00:54.832Z,84.80
2023-03-13T10:03:27.496Z,83.70
2023-03-13T10:05:57.620Z,85.10
2023-03-13T10:08:35.131Z,85.50
2023-03-13T10:11:08.113Z,86.30
2023-03-13T10:13:49.120Z,87.10
2023-03-13T10:16:29.210Z,87.10
2023-03-13T10:18:59.281Z,88.10
2023-03-13T10:21:33.819Z,87.80
2023-03-13T10:24:11.726Z,88.10
2023-03-13T10:26:38.404Z,88.20
2023-03-13T10:29:21.076Z,87.90
2023-03-13T10:31:59.160Z,87.50
2023-03-13T10:34:28.026Z,86.60
2023-03-13T10:36:59.270Z,86.50
2023-03-13T10:39:30.079Z,85.80
2023-03-13T10:42:11.144Z,85.00
2023-03-13T10:44:38.159Z,86.60
2023-03-13T10:47:06.199Z,85.40
2023-03-13T10:49:33.932Z,85.00
2023-03-13T10:52:03.364Z,83.70
2023-03-13T10:54:35.118Z,83.40
2023-03-13T10:57:31.860Z,83.50
2023-03-13T10:59:59.408Z,85.30
2023-03-13T11:02:32.432Z,84.90
2023-03-13T11:04:59.804Z,85.90
2023-03-13T11:07:33.679Z,86.50
2023-03-13T11:10:20.731Z,86.30
2023-03-13T11:12:52.985Z,86.60
2023-03-13T11:15:32.607Z,87.00
2023-03-13T11:18:26.044Z,87.80
2023-03-13T11:20:53.626Z,87.80
2023-03-13T11:23:27.718Z,88.80
2023-03-13T11:26:19.220Z,89.20
2023-03-13T11:28:55.184Z,91.20
2023-03-13T11:31:29.666Z,91.10
2023-03-13T11:34:11.707Z,92.40
2023-03-13T11:37:15.060Z,92.80
2023-03-13T11:39:59.564Z,93.30
2023-03-13T11:42:40.172Z,92.30
2023-03-13T11:45:42.050Z,90.20
2023-03-13T11:48:36.030Z,88.70
2023-03-13T11:51:31.596Z,87.70
2023-03-13T11:54:09.902Z,86.20
2023-03-13T11:56:49.131Z,86.00
2023-03-13T11:59:52.985Z,87.30
2023-03-13T12:02:28.129Z,87.30
2023-03-13T12:05:00.423Z,86.50
2023-03-13T12:07:30.877Z,86.80
2023-03-13T12:10:02.157Z,86.20
2023-03-13T12:12:44.650Z,85.10
2023-03-13T12:15:15.018Z,84.40
2023-03-13T12:17:50.650Z,83.90
2023-03-13T12:20:30.924Z,83.40
2023-03-13T12:23:02.768Z,83.90
2023-03-13T12:26:00.482Z,84.30
2023-03-13T12:28:30.093Z,83.90
2023-03-13T12:31:06.901Z,83.70
2023-03-13T12:34:18.464Z,84.30
2023-03-13T12:36:52.713Z,86.70
2023-03-13T12:39:50.447Z,89.40
2023-03-13T12:42:57.105Z,91.10
2023-03-13T12:45:26.169Z,91.70
2023-03-13T12:48:11.288Z,90.40
2023-03-13T12:50:49.887Z,91.80
2023-03-13T12:53:44.590Z,91.90
2023-03-13T12:56:55.843Z,91.90
2023-03-13T12:59:36.956Z,89.50
2023-03-13T13:02:21.710Z,90.80
2023-03-13T13:04:50.897Z,88.50
2023-03-13T13:07:20.430Z,89.70
2023-03-13T13:10:01.241Z,89.70
2023-03-13T13:12:27.998Z,89.20
2023-03-13T13:15:11.433Z,88.80
2023-03-13T13:18:01.616Z,89.20
2023-03-13T13:20:38.985Z,89.50
2023-03-13T13:23:34.166Z,90.10
2023-03-13T13:26:36.754Z,90.10
2023-03-13T13:29:12.683Z,90.20
2023-03-13T13:31:49.511Z,90.20
2023-03-13T13:34:28.538Z,90.40
2023-03-13T13:36:57.147Z,90.20
2023-03-13T13:39:38.971Z,90.20
2023-03-13T13:42:33.453Z,90.40
2023-03-13T13:45:14.958Z,90.60
2023-03-13T13:47:44.479Z,90.90
2023-03-13T13:50:30.939Z,90.80
2023-03-13T13:53:33.377Z,91.20
2023-03-13T13:56:00.108Z,91.30
2023-03-13T13:58:30.034Z,91.70
2023-03-13T14:01:11.346Z,92.60
2023-03-13T14:03:42.341Z,94.10
2023-03-13T14:06:26.950Z,95.10
2023-03-13T14:08:57.653Z,95.00
2023-03-13T14:11:31.376Z,95.00
2023-03-13T14:14:30.449Z,95.10
2023-03-13T14:16:57.974Z,95.10
2023-03-13T14:19:30.524Z,94.40
2023-03-13T14:22:02.628Z,93.70
2023-03-13T14:24:29.363Z,93.50
2023-03-13T14:26:56.138Z,93.80
2023-03-13T14:29:26.134Z,94.50
2023-03-13T14:31:58.612Z,95.10
2023-03-13T14:34:27.421Z,95.70
2023-03-13T14:37:14.970Z,95.80
2023-03-13T14:39:45.439Z,96.10
2023-03-13T14:42:17.534Z,96.60
2023-03-13T14:44:46.563Z,96.50
2023-03-13T14:47:26.877Z,97.40
2023-03-13T14:49:59.393Z,98.60
2023-03-13T14:52:28.843Z,99.60
2023-03-13T14:54:58.014Z,99.90
2023-03-13T14:57:27.434Z,99.90
2023-03-13T14:59:55.598Z,99.90
2023-03-13T15:02:24.301Z,99.90
2023-03-13T15:04:53.242Z,99.90
2023-03-13T15:07:20.471Z,99.90
2023-03-13T15:09:48.779Z,99.90
2023-03-13T15:12:22.606Z,99.90
2023-03-13T15:14:52.713Z,99.90
2023-03-13T15:17:25.840Z,99.90
2023-03-13T15:19:57.936Z,99.90
2023-03-13T15:22:29.001Z,99.90
2023-03-13T15:25:05.689Z,99.90
2023-03-13T15:27:33.552Z,99.90
2023-03-13T15:30:00.243Z,99.90
2023-03-13T15:32:33.580Z,99.90
2023-03-13T15:35:01.922Z,99.90
2023-03-13T15:37:30.244Z,99.90
2023-03-13T15:39:57.788Z,99.90
2023-03-13T15:42:24.858Z,99.90
2023-03-13T15:44:51.550Z,99.90
2023-03-13T15:47:20.965Z,99.90
2023-03-13T15:49:48.308Z,99.50
2023-03-13T15:52:18.881Z,99.10
2023-03-13T15:54:49.870Z,98.80
2023-03-13T15:57:25.496Z,98.80
2023-03-13T15:59:53.690Z,98.90
2023-03-13T16:02:23.263Z,99.80
2023-03-13T16:04:51.049Z,98.90
2023-03-13T16:07:21.528Z,99.00
2023-03-13T16:09:48.790Z,99.00
2023-03-13T16:12:15.474Z,99.10
2023-03-13T16:14:42.515Z,99.30
2023-03-13T16:17:15.629Z,99.30
2023-03-13T16:19:43.189Z,99.40
2023-03-13T16:22:10.505Z,99.50
2023-03-13T16:24:37.141Z,99.40
2023-03-13T16:27:16.783Z,99.20
2023-03-13T16:29:44.651Z,98.90
2023-03-13T16:32:18.687Z,99.00
2023-03-13T16:34:45.390Z,99.00
2023-03-13T16:37:14.029Z,98.00
2023-03-13T16:39:41.303Z,97.90
2023-03-13T16:42:08.470Z,97.50
2023-03-13T16:44:35.089Z,96.80
2023-03-13T16:47:05.852Z,96.80
2023-03-13T16:49:33.051Z,96.90
2023-03-13T16:51:59.668Z,96.50
2023-03-13T16:54:26.305Z,96.50
2023-03-13T16:56:52.986Z,96.50
2023-03-13T16:59:19.781Z,95.90
2023-03-13T17:01:47.143Z,95.50
2023-03-13T17:04:14.183Z,95.20
2023-03-13T17:06:44.431Z,95.10
2023-03-13T17:09:14.808Z,95.10
2023-03-13T17:11:41.739Z,95.30
2023-03-13T17:14:08.493Z,95.50
2023-03-13T17:16:38.487Z,95.60
2023-03-13T17:19:08.473Z,95.80
2023-03-13T17:21:36.635Z,96.10
2023-03-13T17:24:03.858Z,96.20
2023-03-13T17:26:36.477Z,96.30
2023-03-13T17:29:05.113Z,96.50
2023-03-13T17:31:37.367Z,96.80
2023-03-13T17:34:05.635Z,96.90
2023-03-13T17:36:32.414Z,97.00
2023-03-13T17:39:01.837Z,96.70
2023-03-13T17:41:31.810Z,96.80
2023-03-13T17:44:03.714Z,96.80
2023-03-13T17:46:39.095Z,97.70
2023-03-13T17:49:07.638Z,97.80
2023-03-13T17:51:35.641Z,98.00
2023-03-13T17:54:02.974Z,98.00
2023-03-13T17:56:30.948Z,97.90
2023-03-13T17:58:59.812Z,98.30
2023-03-13T18:01:31.016Z,98.00
2023-03-13T18:03:58.377Z,98.50
2023-03-13T18:06:39.775Z,98.40
2023-03-13T18:09:11.908Z,98.50
2023-03-13T18:11:38.990Z,98.30
2023-03-13T18:14:06.586Z,98.10
2023-03-13T18:16:42.778Z,98.00
2023-03-13T18:19:19.938Z,97.90
2023-03-13T18:21:49.980Z,98.00
2023-03-13T18:24:20.068Z,98.30
2023-03-13T18:26:48.033Z,98.20
2023-03-13T18:29:16.248Z,98.80
2023-03-13T18:31:43.836Z,98.80
2023-03-13T18:34:11.614Z,98.50
2023-03-13T18:36:39.049Z,99.00
2023-03-13T18:39:06.468Z,98.90
2023-03-13T18:41:34.293Z,99.60
2023-03-13T18:44:03.969Z,99.30
2023-03-13T18:46:31.960Z,99.30
2023-03-13T18:48:58.880Z,99.30
2023-03-13T18:51:26.158Z,99.40
2023-03-13T18:53:54.124Z,99.30
2023-03-13T18:56:27.855Z,99.20
2023-03-13T18:58:55.804Z,99.60
2023-03-13T19:01:25.018Z,99.70
2023-03-13T19:03:51.840Z,99.50
2023-03-13T19:06:25.737Z,99.90
2023-03-13T19:08:56.116Z,99.90
2023-03-13T19:11:25.970Z,99.80
2023-03-13T19:13:52.894Z,99.90
2023-03-13T19:16:39.993Z,99.90
2023-03-13T19:19:12.734Z,99.90
2023-03-13T19:21:40.061Z,99.90
2023-03-13T19:24:07.082Z,99.90
2023-03-13T19:26:41.041Z,99.90
2023-03-13T19:29:16.825Z,99.90
2023-03-13T19:31:43.980Z,99.90
2023-03-13T19:34:11.071Z,99.90
2023-03-13T19:36:40.333Z,99.90
2023-03-13T19:39:16.925Z,99.90
2023-03-13T19:41:43.907Z,99.90
2023-03-13T19:44:11.012Z,99.90
2023-03-13T19:46:43.100Z,99.90
2023-03-13T19:49:13.020Z,99.90
2023-03-13T19:51:39.919Z,99.90
2023-03-13T19:54:07.556Z,99.90
2023-03-13T19:56:34.255Z,99.90
2023-03-13T19:59:05.326Z,99.40
2023-03-13T20:01:32.701Z,99.10
2023-03-13T20:03:59.642Z,99.10
2023-03-13T20:06:29.022Z,99.00
2023-03-13T20:08:57.666Z,98.80
2023-03-13T20:11:25.819Z,98.60
2023-03-13T20:13:52.950Z,98.30
2023-03-13T20:16:21.748Z,98.00
2023-03-13T20:18:49.652Z,97.80
2023-03-13T20:21:17.898Z,97.50
2023-03-13T20:23:49.626Z,97.20
2023-03-13T20:26:18.234Z,97.20
2023-03-13T20:28:47.279Z,97.40
2023-03-13T20:31:16.764Z,97.30
2023-03-13T20:33:43.491Z,97.50
2023-03-13T20:36:15.987Z,97.50
2023-03-13T20:38:43.534Z,97.50
2023-03-13T20:41:10.988Z,97.80
2023-03-13T20:43:38.754Z,97.90
2023-03-13T20:46:09.465Z,98.10
2023-03-13T20:48:39.264Z,98.40
2023-03-13T20:51:08.036Z,98.20
2023-03-13T20:53:36.853Z,98.30
2023-03-13T20:56:06.579Z,98.20
2023-03-13T20:58:33.838Z,98.10
2023-03-13T21:01:01.458Z,98.20
2023-03-13T21:03:28.522Z,98.70
2023-03-13T21:05:55.320Z,98.40
2023-03-13T21:08:22.787Z,98.60
2023-03-13T21:10:50.375Z,98.70
2023-03-13T21:13:17.069Z,99.00
2023-03-13T21:15:43.748Z,99.10
2023-03-13T21:18:10.364Z,99.00
2023-03-13T21:20:38.848Z,98.70
2023-03-13T21:23:05.534Z,98.70
2023-03-13T21:25:32.157Z,98.70
2023-03-13T21:27:58.781Z,98.70
2023-03-13T21:30:25.457Z,98.60
2023-03-13T21:32:52.209Z,98.60
2023-03-13T21:35:18.930Z,98.40
2023-03-13T21:37:45.855Z,98.10
2023-03-13T21:40:13.095Z,98.20
2023-03-13T21:42:40.044Z,98.50
2023-03-13T21:45:07.677Z,98.50
2023-03-13T21:47:37.101Z,98.30
2023-03-13T21:50:08.218Z,98.20
2023-03-13T21:52:41.211Z,98.30
2023-03-13T21:55:11.529Z,98.60
2023-03-13T21:57:38.375Z,98.50
2023-03-13T22:00:08.164Z,98.20
2023-03-13T22:02:35.992Z,98.70
2023-03-13T22:05:04.522Z,98.80
2023-03-13T22:07:31.174Z,98.80
2023-03-13T22:09:58.180Z,98.80
2023-03-13T22:12:25.614Z,98.70
2023-03-13T22:14:52.946Z,98.80
2023-03-13T22:17:20.396Z,99.30
2023-03-13T22:19:47.808Z,99.20
2023-03-13T22:22:15.528Z,99.60
2023-03-13T22:24:42.186Z,99.20
2023-03-13T22:27:12.735Z,99.90
2023-03-13T22:29:39.562Z,99.90
2023-03-13T22:32:06.348Z,99.90
2023-03-13T22:34:33.006Z,99.90
2023-03-13T22:36:59.589Z,99.90
2023-03-13T22:39:26.326Z,99.90
2023-03-13T22:41:52.941Z,99.90
2023-03-13T22:44:19.682Z,99.60
2023-03-13T22:46:46.358Z,99.30
2023-03-13T22:49:13.037Z,98.80
2023-03-13T22:51:39.697Z,98.60
2023-03-13T22:54:06.361Z,99.00
2023-03-13T22:56:33.070Z,98.10
2023-03-13T22:58:59.769Z,97.40
2023-03-13T23:01:26.676Z,97.00
2023-03-13T23:03:53.415Z,96.80
2023-03-13T23:06:22.932Z,97.10
2023-03-13T23:08:50.452Z,96.80
2023-03-13T23:11:17.862Z,96.70
2023-03-13T23:13:44.535Z,97.00
2023-03-13T23:16:12.076Z,97.20
2023-03-13T23:18:39.661Z,97.30
2023-03-13T23:21:08.763Z,97.30
2023-03-13T23:23:35.686Z,97.50
2023-03-13T23:26:04.587Z,97.60
2023-03-13T23:28:31.582Z,97.50
2023-03-13T23:30:58.308Z,97.40
2023-03-13T23:33:24.992Z,97.50
2023-03-13T23:35:51.694Z,97.30
2023-03-13T23:38:23.789Z,97.40
2023-03-13T23:40:50.480Z,97.20
2023-03-13T23:43:17.203Z,97.80
2023-03-13T23:45:43.867Z,96.50
2023-03-13T23:48:10.510Z,96.10
2023-03-13T23:50:37.199Z,95.80
2023-03-13T23:53:03.907Z,95.50
2023-03-13T23:55:30.539Z,95.20
2023-03-13T23:57:57.269Z,95.10
